sensor_id;sensor_type;location;lat;lon;timestamp;temperature;humidity
30572;DHT22;17348;50.948;10.696;2023-01-28T00:02:58;1.30;99.90
30572;DHT22;17348;50.948;10.696;2023-01-28T00:06:02;1.30;99.90
30572;DHT22;17348;50.948;10.696;2023-01-28T00:09:04;1.40;99.90
30572;DHT22;17348;50.948;10.696;2023-01-28T00:12:08;1.30;99.90
30572;DHT22;17348;50.948;10.696;2023-01-28T00:15:10;1.30;99.90
30572;DHT22;17348;50.948;10.696;2023-01-28T00:18:13;1.30;99.90
30572;DHT22;17348;50.948;10.696;2023-01-28T00:21:15;1.30;99.90
30572;DHT22;17348;50.948;10.696;2023-01-28T00:24:17;1.40;99.90
30572;DHT22;17348;50.948;10.696;2023-01-28T00:27:21;1.30;99.90
30572;DHT22;17348;50.948;10.696;2023-01-28T00:30:23;1.30;99.90
30572;DHT22;17348;50.948;10.696;2023-01-28T00:33:26;1.30;99.90
30572;DHT22;17348;50.948;10.696;2023-01-28T00:36:29;1.30;99.90
30572;DHT22;17348;50.948;10.696;2023-01-28T00:39:31;1.30;99.90
30572;DHT22;17348;50.948;10.696;2023-01-28T00:42:35;1.30;99.90
30572;DHT22;17348;50.948;10.696;2023-01-28T00:45:38;1.30;99.90
30572;DHT22;17348;50.948;10.696;2023-01-28T00:48:41;1.30;99.90
30572;DHT22;17348;50.948;10.696;2023-01-28T00:51:44;1.30;99.90
30572;DHT22;17348;50.948;10.696;2023-01-28T00:54:48;1.30;99.90
30572;DHT22;17348;50.948;10.696;2023-01-28T00:57:52;1.20;99.90
30572;DHT22;17348;50.948;10.696;2023-01-28T01:00:54;1.30;99.90
30572;DHT22;17348;50.948;10.696;2023-01-28T01:03:57;1.30;99.90
30572;DHT22;17348;50.948;10.696;2023-01-28T01:07:02;1.30;99.90
30572;DHT22;17348;50.948;10.696;2023-01-28T01:10:06;1.30;99.90
30572;DHT22;17348;50.948;10.696;2023-01-28T01:13:10;1.30;99.90
30572;DHT22;17348;50.948;10.696;2023-01-28T01:16:13;1.30;99.90
30572;DHT22;17348;50.948;10.696;2023-01-28T01:19:16;1.30;99.90
30572;DHT22;17348;50.948;10.696;2023-01-28T01:22:18;1.40;99.90
30572;DHT22;17348;50.948;10.696;2023-01-28T01:25:21;1.30;99.90
30572;DHT22;17348;50.948;10.696;2023-01-28T01:28:24;1.30;99.90
30572;DHT22;17348;50.948;10.696;2023-01-28T01:31:27;1.40;99.90
30572;DHT22;17348;50.948;10.696;2023-01-28T01:34:29;1.30;99.90
30572;DHT22;17348;50.948;10.696;2023-01-28T01:37:32;1.30;99.90
30572;DHT22;17348;50.948;10.696;2023-01-28T01:40:34;1.30;99.90
30572;DHT22;17348;50.948;10.696;2023-01-28T01:43:50;1.30;99.90
30572;DHT22;17348;50.948;10.696;2023-01-28T01:46:53;1.30;99.90
30572;DHT22;17348;50.948;10.696;2023-01-28T01:49:55;1.20;99.90
30572;DHT22;17348;50.948;10.696;2023-01-28T01:53:03;1.20;99.90
30572;DHT22;17348;50.948;10.696;2023-01-28T01:56:09;1.20;99.90
30572;DHT22;17348;50.948;10.696;2023-01-28T01:59:16;1.20;99.90
30572;DHT22;17348;50.948;10.696;2023-01-28T02:02:21;1.20;99.90
30572;DHT22;17348;50.948;10.696;2023-01-28T02:05:24;1.20;99.90
30572;DHT22;17348;50.948;10.696;2023-01-28T02:08:27;1.20;99.90
30572;DHT22;17348;50.948;10.696;2023-01-28T02:11:32;1.20;99.90
30572;DHT22;17348;50.948;10.696;2023-01-28T02:14:38;1.30;99.90
30572;DHT22;17348;50.948;10.696;2023-01-28T02:17:43;1.30;99.90
30572;DHT22;17348;50.948;10.696;2023-01-28T02:21:03;1.30;99.90
30572;DHT22;17348;50.948;10.696;2023-01-28T02:28:12;1.30;99.90
30572;DHT22;17348;50.948;10.696;2023-01-28T02:31:24;1.30;99.90
30572;DHT22;17348;50.948;10.696;2023-01-28T02:34:35;1.30;99.90
30572;DHT22;17348;50.948;10.696;2023-01-28T02:37:43;1.30;99.90
30572;DHT22;17348;50.948;10.696;2023-01-28T02:40:50;1.30;99.90
30572;DHT22;17348;50.948;10.696;2023-01-28T02:44:08;1.30;99.90
30572;DHT22;17348;50.948;10.696;2023-01-28T02:47:11;1.30;99.90
30572;DHT22;17348;50.948;10.696;2023-01-28T02:50:38;1.30;99.90
30572;DHT22;17348;50.948;10.696;2023-01-28T02:53:48;1.20;99.90
30572;DHT22;17348;50.948;10.696;2023-01-28T02:56:56;1.20;99.90
30572;DHT22;17348;50.948;10.696;2023-01-28T03:00:06;1.20;99.90
30572;DHT22;17348;50.948;10.696;2023-01-28T03:03:16;1.20;99.90
30572;DHT22;17348;50.948;10.696;2023-01-28T03:06:24;1.30;99.90
30572;DHT22;17348;50.948;10.696;2023-01-28T03:09:30;1.20;99.90
30572;DHT22;17348;50.948;10.696;2023-01-28T03:12:34;1.20;99.90
30572;DHT22;17348;50.948;10.696;2023-01-28T03:15:57;1.20;99.90
30572;DHT22;17348;50.948;10.696;2023-01-28T03:19:17;1.20;99.90
30572;DHT22;17348;50.948;10.696;2023-01-28T03:22:38;1.10;99.90
30572;DHT22;17348;50.948;10.696;2023-01-28T03:26:01;1.10;99.90
30572;DHT22;17348;50.948;10.696;2023-01-28T03:29:23;1.10;99.90
30572;DHT22;17348;50.948;10.696;2023-01-28T03:32:45;1.10;99.90
30572;DHT22;17348;50.948;10.696;2023-01-28T03:36:06;1.10;99.90
30572;DHT22;17348;50.948;10.696;2023-01-28T03:39:28;1.10;99.90
30572;DHT22;17348;50.948;10.696;2023-01-28T03:42:31;1.20;99.90
30572;DHT22;17348;50.948;10.696;2023-01-28T03:45:34;1.10;99.90
30572;DHT22;17348;50.948;10.696;2023-01-28T03:48:38;1.10;99.90
30572;DHT22;17348;50.948;10.696;2023-01-28T03:51:41;1.10;99.90
30572;DHT22;17348;50.948;10.696;2023-01-28T03:54:44;1.10;99.90
30572;DHT22;17348;50.948;10.696;2023-01-28T03:57:48;1.20;99.90
30572;DHT22;17348;50.948;10.696;2023-01-28T04:00:50;1.10;99.90
30572;DHT22;17348;50.948;10.696;2023-01-28T04:03:54;1.10;99.90
30572;DHT22;17348;50.948;10.696;2023-01-28T04:06:56;1.10;99.90
30572;DHT22;17348;50.948;10.696;2023-01-28T04:09:59;1.20;99.90
30572;DHT22;17348;50.948;10.696;2023-01-28T04:13:01;1.10;99.90
30572;DHT22;17348;50.948;10.696;2023-01-28T04:16:04;1.20;99.90
30572;DHT22;17348;50.948;10.696;2023-01-28T04:19:08;1.20;99.90
30572;DHT22;17348;50.948;10.696;2023-01-28T04:22:10;1.20;99.90
30572;DHT22;17348;50.948;10.696;2023-01-28T04:25:13;1.20;99.90
30572;DHT22;17348;50.948;10.696;2023-01-28T04:28:16;1.20;99.90
30572;DHT22;17348;50.948;10.696;2023-01-28T04:31:18;1.30;99.90
30572;DHT22;17348;50.948;10.696;2023-01-28T04:34:22;1.30;99.90
30572;DHT22;17348;50.948;10.696;2023-01-28T04:37:24;1.20;99.90
30572;DHT22;17348;50.948;10.696;2023-01-28T04:40:26;1.20;99.90
30572;DHT22;17348;50.948;10.696;2023-01-28T04:43:28;1.20;99.90
30572;DHT22;17348;50.948;10.696;2023-01-28T04:46:31;1.20;99.90
30572;DHT22;17348;50.948;10.696;2023-01-28T04:49:34;1.20;99.90
30572;DHT22;17348;50.948;10.696;2023-01-28T04:52:37;1.20;99.90
30572;DHT22;17348;50.948;10.696;2023-01-28T04:55:39;1.30;99.90
30572;DHT22;17348;50.948;10.696;2023-01-28T04:58:41;1.20;99.90
30572;DHT22;17348;50.948;10.696;2023-01-28T05:01:44;1.20;99.90
30572;DHT22;17348;50.948;10.696;2023-01-28T05:04:47;1.20;99.90
30572;DHT22;17348;50.948;10.696;2023-01-28T05:07:51;1.20;99.90
30572;DHT22;17348;50.948;10.696;2023-01-28T05:10:53;1.20;99.90
30572;DHT22;17348;50.948;10.696;2023-01-28T05:13:55;1.20;99.90
30572;DHT22;17348;50.948;10.696;2023-01-28T05:16:58;1.20;99.90
30572;DHT22;17348;50.948;10.696;2023-01-28T05:20:01;1.20;99.90
30572;DHT22;17348;50.948;10.696;2023-01-28T05:23:04;1.10;99.90
30572;DHT22;17348;50.948;10.696;2023-01-28T05:26:07;1.10;99.90
30572;DHT22;17348;50.948;10.696;2023-01-28T05:29:09;1.10;99.90
30572;DHT22;17348;50.948;10.696;2023-01-28T05:32:11;1.10;99.90
30572;DHT22;17348;50.948;10.696;2023-01-28T05:35:15;1.10;99.90
30572;DHT22;17348;50.948;10.696;2023-01-28T05:38:17;1.10;99.90
30572;DHT22;17348;50.948;10.696;2023-01-28T05:41:20;1.00;99.90
30572;DHT22;17348;50.948;10.696;2023-01-28T05:44:22;1.10;99.90
30572;DHT22;17348;50.948;10.696;2023-01-28T05:47:25;1.00;99.90
30572;DHT22;17348;50.948;10.696;2023-01-28T05:50:28;1.00;99.90
30572;DHT22;17348;50.948;10.696;2023-01-28T05:53:31;1.00;99.90
30572;DHT22;17348;50.948;10.696;2023-01-28T05:56:33;1.00;99.90
30572;DHT22;17348;50.948;10.696;2023-01-28T05:59:36;1.00;99.90
30572;DHT22;17348;50.948;10.696;2023-01-28T06:02:38;1.00;99.90
30572;DHT22;17348;50.948;10.696;2023-01-28T06:05:42;1.00;99.90
30572;DHT22;17348;50.948;10.696;2023-01-28T06:08:44;1.00;99.90
30572;DHT22;17348;50.948;10.696;2023-01-28T06:11:47;1.00;99.90
30572;DHT22;17348;50.948;10.696;2023-01-28T06:14:50;1.00;99.90
30572;DHT22;17348;50.948;10.696;2023-01-28T06:17:52;1.00;99.90
30572;DHT22;17348;50.948;10.696;2023-01-28T06:20:56;1.00;99.90
30572;DHT22;17348;50.948;10.696;2023-01-28T06:23:58;1.00;99.90
30572;DHT22;17348;50.948;10.696;2023-01-28T06:27:01;1.00;99.90
30572;DHT22;17348;50.948;10.696;2023-01-28T06:30:04;1.00;99.90
30572;DHT22;17348;50.948;10.696;2023-01-28T06:33:06;1.00;99.90
30572;DHT22;17348;50.948;10.696;2023-01-28T06:36:10;1.00;99.90
30572;DHT22;17348;50.948;10.696;2023-01-28T06:39:12;1.00;99.90
30572;DHT22;17348;50.948;10.696;2023-01-28T06:42:15;1.00;99.90
30572;DHT22;17348;50.948;10.696;2023-01-28T06:45:17;1.00;99.90
30572;DHT22;17348;50.948;10.696;2023-01-28T06:48:19;1.00;99.90
30572;DHT22;17348;50.948;10.696;2023-01-28T06:51:23;1.00;99.90
30572;DHT22;17348;50.948;10.696;2023-01-28T06:54:26;1.00;99.90
30572;DHT22;17348;50.948;10.696;2023-01-28T06:57:28;1.00;99.90
30572;DHT22;17348;50.948;10.696;2023-01-28T07:00:30;1.00;99.90
30572;DHT22;17348;50.948;10.696;2023-01-28T07:03:33;1.00;99.90
30572;DHT22;17348;50.948;10.696;2023-01-28T07:06:37;1.00;99.90
30572;DHT22;17348;50.948;10.696;2023-01-28T07:09:39;1.00;99.90
30572;DHT22;17348;50.948;10.696;2023-01-28T07:12:42;1.00;99.90
30572;DHT22;17348;50.948;10.696;2023-01-28T07:15:44;1.00;99.90
30572;DHT22;17348;50.948;10.696;2023-01-28T07:18:46;1.00;99.90
30572;DHT22;17348;50.948;10.696;2023-01-28T07:21:50;1.00;99.90
30572;DHT22;17348;50.948;10.696;2023-01-28T07:24:53;1.00;99.90
30572;DHT22;17348;50.948;10.696;2023-01-28T07:27:55;1.00;99.90
30572;DHT22;17348;50.948;10.696;2023-01-28T07:30:57;1.00;99.90
30572;DHT22;17348;50.948;10.696;2023-01-28T07:34:00;1.10;99.90
30572;DHT22;17348;50.948;10.696;2023-01-28T07:37:03;1.00;99.90
30572;DHT22;17348;50.948;10.696;2023-01-28T07:40:10;1.00;99.90
30572;DHT22;17348;50.948;10.696;2023-01-28T07:43:13;1.00;99.90
30572;DHT22;17348;50.948;10.696;2023-01-28T07:46:16;1.00;99.90
30572;DHT22;17348;50.948;10.696;2023-01-28T07:49:18;0.90;99.90
30572;DHT22;17348;50.948;10.696;2023-01-28T07:52:22;0.90;99.90
30572;DHT22;17348;50.948;10.696;2023-01-28T07:55:25;1.00;99.90
30572;DHT22;17348;50.948;10.696;2023-01-28T07:58:27;1.10;99.90
30572;DHT22;17348;50.948;10.696;2023-01-28T08:01:30;1.10;99.90
30572;DHT22;17348;50.948;10.696;2023-01-28T08:04:32;1.20;99.90
30572;DHT22;17348;50.948;10.696;2023-01-28T08:07:36;1.20;99.90
30572;DHT22;17348;50.948;10.696;2023-01-28T08:10:39;1.20;99.90
30572;DHT22;17348;50.948;10.696;2023-01-28T08:13:42;1.20;99.90
30572;DHT22;17348;50.948;10.696;2023-01-28T08:16:44;1.20;99.90
30572;DHT22;17348;50.948;10.696;2023-01-28T08:19:48;1.20;99.90
30572;DHT22;17348;50.948;10.696;2023-01-28T08:22:52;1.10;99.90
30572;DHT22;17348;50.948;10.696;2023-01-28T08:25:56;1.20;99.90
30572;DHT22;17348;50.948;10.696;2023-01-28T08:28:59;1.20;99.90
30572;DHT22;17348;50.948;10.696;2023-01-28T08:32:01;1.10;99.90
30572;DHT22;17348;50.948;10.696;2023-01-28T08:35:04;1.10;99.90
30572;DHT22;17348;50.948;10.696;2023-01-28T08:38:10;1.20;99.90
30572;DHT22;17348;50.948;10.696;2023-01-28T08:41:13;1.20;99.90
30572;DHT22;17348;50.948;10.696;2023-01-28T08:44:16;1.20;99.90
30572;DHT22;17348;50.948;10.696;2023-01-28T08:47:18;1.20;99.90
30572;DHT22;17348;50.948;10.696;2023-01-28T08:50:21;1.30;99.90
30572;DHT22;17348;50.948;10.696;2023-01-28T08:53:25;1.30;99.90
30572;DHT22;17348;50.948;10.696;2023-01-28T08:56:28;1.30;99.90
30572;DHT22;17348;50.948;10.696;2023-01-28T08:59:30;1.30;99.90
30572;DHT22;17348;50.948;10.696;2023-01-28T09:02:32;1.40;99.90
30572;DHT22;17348;50.948;10.696;2023-01-28T09:05:35;1.40;99.90
30572;DHT22;17348;50.948;10.696;2023-01-28T09:08:39;1.30;99.90
30572;DHT22;17348;50.948;10.696;2023-01-28T09:11:41;1.30;99.90
30572;DHT22;17348;50.948;10.696;2023-01-28T09:14:44;1.40;99.90
30572;DHT22;17348;50.948;10.696;2023-01-28T09:17:46;1.50;99.90
30572;DHT22;17348;50.948;10.696;2023-01-28T09:20:48;1.50;99.90
30572;DHT22;17348;50.948;10.696;2023-01-28T09:23:52;1.50;99.90
30572;DHT22;17348;50.948;10.696;2023-01-28T09:26:56;1.50;99.90
30572;DHT22;17348;50.948;10.696;2023-01-28T09:29:59;1.50;99.90
30572;DHT22;17348;50.948;10.696;2023-01-28T09:33:01;1.60;99.90
30572;DHT22;17348;50.948;10.696;2023-01-28T09:36:05;1.60;99.90
30572;DHT22;17348;50.948;10.696;2023-01-28T09:39:09;1.60;99.90
30572;DHT22;17348;50.948;10.696;2023-01-28T09:42:29;1.70;99.90
30572;DHT22;17348;50.948;10.696;2023-01-28T09:45:36;1.70;99.90
30572;DHT22;17348;50.948;10.696;2023-01-28T09:48:42;1.60;99.90
30572;DHT22;17348;50.948;10.696;2023-01-28T09:51:49;1.60;99.90
30572;DHT22;17348;50.948;10.696;2023-01-28T09:54:58;1.60;99.90
30572;DHT22;17348;50.948;10.696;2023-01-28T09:58:05;1.50;99.90
30572;DHT22;17348;50.948;10.696;2023-01-28T10:01:27;1.50;99.90
30572;DHT22;17348;50.948;10.696;2023-01-28T10:04:42;1.40;99.90
30572;DHT22;17348;50.948;10.696;2023-01-28T10:07:55;1.40;99.90
30572;DHT22;17348;50.948;10.696;2023-01-28T10:11:05;1.40;99.90
30572;DHT22;17348;50.948;10.696;2023-01-28T10:14:17;1.50;99.90
30572;DHT22;17348;50.948;10.696;2023-01-28T10:17:27;1.50;99.90
30572;DHT22;17348;50.948;10.696;2023-01-28T10:20:34;1.50;99.90
30572;DHT22;17348;50.948;10.696;2023-01-28T10:23:48;1.50;99.90
30572;DHT22;17348;50.948;10.696;2023-01-28T10:26:54;1.60;99.90
30572;DHT22;17348;50.948;10.696;2023-01-28T10:29:59;1.50;99.90
30572;DHT22;17348;50.948;10.696;2023-01-28T10:33:04;1.50;99.90
30572;DHT22;17348;50.948;10.696;2023-01-28T10:36:08;1.50;99.90
30572;DHT22;17348;50.948;10.696;2023-01-28T10:39:13;1.40;99.90
30572;DHT22;17348;50.948;10.696;2023-01-28T10:42:24;1.50;99.90
30572;DHT22;17348;50.948;10.696;2023-01-28T10:45:31;1.50;99.90
30572;DHT22;17348;50.948;10.696;2023-01-28T10:48:35;1.50;99.90
30572;DHT22;17348;50.948;10.696;2023-01-28T10:51:40;1.50;99.90
30572;DHT22;17348;50.948;10.696;2023-01-28T10:54:43;1.50;99.90
30572;DHT22;17348;50.948;10.696;2023-01-28T10:57:47;1.40;99.90
30572;DHT22;17348;50.948;10.696;2023-01-28T11:00:52;1.40;99.90
30572;DHT22;17348;50.948;10.696;2023-01-28T11:03:57;1.40;99.90
30572;DHT22;17348;50.948;10.696;2023-01-28T11:07:01;1.40;99.90
30572;DHT22;17348;50.948;10.696;2023-01-28T11:10:26;1.40;99.90
30572;DHT22;17348;50.948;10.696;2023-01-28T11:13:33;1.40;99.90
30572;DHT22;17348;50.948;10.696;2023-01-28T11:16:38;1.40;99.90
30572;DHT22;17348;50.948;10.696;2023-01-28T11:19:43;1.40;99.90
30572;DHT22;17348;50.948;10.696;2023-01-28T11:22:46;1.30;99.90
30572;DHT22;17348;50.948;10.696;2023-01-28T11:25:59;1.40;99.90
30572;DHT22;17348;50.948;10.696;2023-01-28T11:29:05;1.50;99.90
30572;DHT22;17348;50.948;10.696;2023-01-28T11:32:16;1.40;99.90
30572;DHT22;17348;50.948;10.696;2023-01-28T11:35:24;1.40;99.90
30572;DHT22;17348;50.948;10.696;2023-01-28T11:38:28;1.40;99.90
30572;DHT22;17348;50.948;10.696;2023-01-28T11:41:32;1.40;99.90
30572;DHT22;17348;50.948;10.696;2023-01-28T11:44:36;1.40;99.90
30572;DHT22;17348;50.948;10.696;2023-01-28T11:47:49;1.50;99.90
30572;DHT22;17348;50.948;10.696;2023-01-28T11:51:01;1.40;99.90
30572;DHT22;17348;50.948;10.696;2023-01-28T11:54:23;1.40;99.90
30572;DHT22;17348;50.948;10.696;2023-01-28T11:57:33;1.40;99.90
30572;DHT22;17348;50.948;10.696;2023-01-28T12:00:45;1.50;99.90
30572;DHT22;17348;50.948;10.696;2023-01-28T12:04:16;1.40;99.90
30572;DHT22;17348;50.948;10.696;2023-01-28T12:07:29;1.40;99.90
30572;DHT22;17348;50.948;10.696;2023-01-28T12:10:40;1.40;99.90
30572;DHT22;17348;50.948;10.696;2023-01-28T12:13:54;1.40;99.90
30572;DHT22;17348;50.948;10.696;2023-01-28T12:17:10;1.40;99.90
30572;DHT22;17348;50.948;10.696;2023-01-28T12:20:18;1.50;99.90
30572;DHT22;17348;50.948;10.696;2023-01-28T12:23:36;1.50;99.90
30572;DHT22;17348;50.948;10.696;2023-01-28T12:26:51;1.50;99.90
30572;DHT22;17348;50.948;10.696;2023-01-28T12:30:08;1.40;99.90
30572;DHT22;17348;50.948;10.696;2023-01-28T12:33:29;1.30;99.90
30572;DHT22;17348;50.948;10.696;2023-01-28T12:36:44;1.30;99.90
30572;DHT22;17348;50.948;10.696;2023-01-28T12:39:59;1.10;99.90
30572;DHT22;17348;50.948;10.696;2023-01-28T12:43:10;1.10;99.90
30572;DHT22;17348;50.948;10.696;2023-01-28T12:46:22;1.10;99.90
30572;DHT22;17348;50.948;10.696;2023-01-28T12:49:32;1.20;99.90
30572;DHT22;17348;50.948;10.696;2023-01-28T12:52:39;1.10;99.90
30572;DHT22;17348;50.948;10.696;2023-01-28T12:55:46;1.10;99.90
30572;DHT22;17348;50.948;10.696;2023-01-28T12:58:53;1.10;99.90
30572;DHT22;17348;50.948;10.696;2023-01-28T13:02:05;1.10;99.90
30572;DHT22;17348;50.948;10.696;2023-01-28T13:05:17;1.10;99.90
30572;DHT22;17348;50.948;10.696;2023-01-28T13:08:23;1.10;99.90
30572;DHT22;17348;50.948;10.696;2023-01-28T13:11:32;1.20;99.90
30572;DHT22;17348;50.948;10.696;2023-01-28T13:14:35;1.20;99.90
30572;DHT22;17348;50.948;10.696;2023-01-28T13:17:38;1.10;99.90
30572;DHT22;17348;50.948;10.696;2023-01-28T13:20:48;1.10;99.90
30572;DHT22;17348;50.948;10.696;2023-01-28T13:24:03;1.00;99.90
30572;DHT22;17348;50.948;10.696;2023-01-28T13:27:21;1.00;99.90
30572;DHT22;17348;50.948;10.696;2023-01-28T13:30:26;1.00;99.90
30572;DHT22;17348;50.948;10.696;2023-01-28T13:33:31;1.00;99.90
30572;DHT22;17348;50.948;10.696;2023-01-28T13:36:38;1.00;99.90
30572;DHT22;17348;50.948;10.696;2023-01-28T13:39:49;1.00;99.90
30572;DHT22;17348;50.948;10.696;2023-01-28T13:43:03;1.10;99.90
30572;DHT22;17348;50.948;10.696;2023-01-28T13:46:09;1.10;99.90
30572;DHT22;17348;50.948;10.696;2023-01-28T13:49:14;1.00;99.90
30572;DHT22;17348;50.948;10.696;2023-01-28T13:52:23;0.90;99.90
30572;DHT22;17348;50.948;10.696;2023-01-28T13:55:30;0.90;99.90
30572;DHT22;17348;50.948;10.696;2023-01-28T13:59:03;1.00;99.90
30572;DHT22;17348;50.948;10.696;2023-01-28T14:06:03;0.90;99.90
30572;DHT22;17348;50.948;10.696;2023-01-28T14:09:28;0.90;99.90
30572;DHT22;17348;50.948;10.696;2023-01-28T14:12:45;0.90;99.90
30572;DHT22;17348;50.948;10.696;2023-01-28T14:19:28;1.10;99.90
30572;DHT22;17348;50.948;10.696;2023-01-28T14:22:32;1.20;99.90
30572;DHT22;17348;50.948;10.696;2023-01-28T14:25:57;1.10;99.90
30572;DHT22;17348;50.948;10.696;2023-01-28T14:29:15;1.10;99.90
30572;DHT22;17348;50.948;10.696;2023-01-28T14:32:22;1.10;99.90
30572;DHT22;17348;50.948;10.696;2023-01-28T14:35:29;1.10;99.90
30572;DHT22;17348;50.948;10.696;2023-01-28T14:38:37;1.10;99.90
30572;DHT22;17348;50.948;10.696;2023-01-28T14:41:42;1.20;99.90
30572;DHT22;17348;50.948;10.696;2023-01-28T14:44:47;1.20;99.90
30572;DHT22;17348;50.948;10.696;2023-01-28T14:48:20;1.20;99.90
30572;DHT22;17348;50.948;10.696;2023-01-28T14:51:49;1.30;99.90
30572;DHT22;17348;50.948;10.696;2023-01-28T14:55:03;1.20;99.90
30572;DHT22;17348;50.948;10.696;2023-01-28T14:58:15;1.00;99.90
30572;DHT22;17348;50.948;10.696;2023-01-28T15:01:20;1.10;99.90
30572;DHT22;17348;50.948;10.696;2023-01-28T15:04:25;1.10;99.90
30572;DHT22;17348;50.948;10.696;2023-01-28T15:07:28;1.00;99.90
30572;DHT22;17348;50.948;10.696;2023-01-28T15:10:34;1.00;99.90
30572;DHT22;17348;50.948;10.696;2023-01-28T15:13:41;1.00;99.90
30572;DHT22;17348;50.948;10.696;2023-01-28T15:16:47;1.00;99.90
30572;DHT22;17348;50.948;10.696;2023-01-28T15:19:51;1.00;99.90
30572;DHT22;17348;50.948;10.696;2023-01-28T15:22:54;1.00;99.90
30572;DHT22;17348;50.948;10.696;2023-01-28T15:25:57;1.10;99.90
30572;DHT22;17348;50.948;10.696;2023-01-28T15:29:00;1.10;99.90
30572;DHT22;17348;50.948;10.696;2023-01-28T15:32:04;1.10;99.90
30572;DHT22;17348;50.948;10.696;2023-01-28T15:35:09;1.10;99.90
30572;DHT22;17348;50.948;10.696;2023-01-28T15:38:14;1.00;99.90
30572;DHT22;17348;50.948;10.696;2023-01-28T15:41:19;0.90;99.90
30572;DHT22;17348;50.948;10.696;2023-01-28T15:44:28;0.90;99.90
30572;DHT22;17348;50.948;10.696;2023-01-28T15:47:32;0.80;99.90
30572;DHT22;17348;50.948;10.696;2023-01-28T15:50:35;0.80;99.90
30572;DHT22;17348;50.948;10.696;2023-01-28T15:53:42;0.80;99.90
30572;DHT22;17348;50.948;10.696;2023-01-28T15:56:45;0.70;99.90
30572;DHT22;17348;50.948;10.696;2023-01-28T15:59:49;0.70;99.90
30572;DHT22;17348;50.948;10.696;2023-01-28T16:02:53;0.60;99.90
30572;DHT22;17348;50.948;10.696;2023-01-28T16:05:59;0.60;99.90
30572;DHT22;17348;50.948;10.696;2023-01-28T16:09:04;0.50;99.90
30572;DHT22;17348;50.948;10.696;2023-01-28T16:12:11;0.50;99.90
30572;DHT22;17348;50.948;10.696;2023-01-28T16:15:18;0.40;99.90
30572;DHT22;17348;50.948;10.696;2023-01-28T16:18:28;0.40;99.90
30572;DHT22;17348;50.948;10.696;2023-01-28T16:21:34;0.40;99.90
30572;DHT22;17348;50.948;10.696;2023-01-28T16:24:48;0.30;99.90
30572;DHT22;17348;50.948;10.696;2023-01-28T16:27:52;0.30;99.90
30572;DHT22;17348;50.948;10.696;2023-01-28T16:30:56;0.20;99.90
30572;DHT22;17348;50.948;10.696;2023-01-28T16:33:59;0.20;99.90
30572;DHT22;17348;50.948;10.696;2023-01-28T16:37:07;0.20;99.90
30572;DHT22;17348;50.948;10.696;2023-01-28T16:40:12;0.20;99.90
30572;DHT22;17348;50.948;10.696;2023-01-28T16:43:15;0.10;99.90
30572;DHT22;17348;50.948;10.696;2023-01-28T16:46:19;0.10;99.90
30572;DHT22;17348;50.948;10.696;2023-01-28T16:49:22;0.00;99.90
30572;DHT22;17348;50.948;10.696;2023-01-28T16:52:24;0.00;99.90
30572;DHT22;17348;50.948;10.696;2023-01-28T16:55:27;0.00;99.90
30572;DHT22;17348;50.948;10.696;2023-01-28T16:58:29;0.00;99.90
30572;DHT22;17348;50.948;10.696;2023-01-28T17:01:33;0.00;99.90
30572;DHT22;17348;50.948;10.696;2023-01-28T17:04:35;0.00;99.90
30572;DHT22;17348;50.948;10.696;2023-01-28T17:07:38;0.00;99.90
30572;DHT22;17348;50.948;10.696;2023-01-28T17:10:40;0.00;99.90
30572;DHT22;17348;50.948;10.696;2023-01-28T17:13:43;0.00;99.90
30572;DHT22;17348;50.948;10.696;2023-01-28T17:16:46;0.00;99.90
30572;DHT22;17348;50.948;10.696;2023-01-28T17:19:49;-0.10;99.90
30572;DHT22;17348;50.948;10.696;2023-01-28T17:22:51;-0.10;99.90
30572;DHT22;17348;50.948;10.696;2023-01-28T17:25:53;-0.10;99.90
30572;DHT22;17348;50.948;10.696;2023-01-28T17:28:56;-0.10;99.90
30572;DHT22;17348;50.948;10.696;2023-01-28T17:31:59;-0.10;99.90
30572;DHT22;17348;50.948;10.696;2023-01-28T17:35:02;-0.10;99.90
30572;DHT22;17348;50.948;10.696;2023-01-28T17:38:04;-0.20;99.90
30572;DHT22;17348;50.948;10.696;2023-01-28T17:41:09;-0.10;99.90
30572;DHT22;17348;50.948;10.696;2023-01-28T17:44:12;-0.10;99.90
30572;DHT22;17348;50.948;10.696;2023-01-28T17:47:16;-0.20;99.90
30572;DHT22;17348;50.948;10.696;2023-01-28T17:50:18;-0.30;99.90
30572;DHT22;17348;50.948;10.696;2023-01-28T17:53:21;-0.30;99.90
30572;DHT22;17348;50.948;10.696;2023-01-28T17:56:25;-0.30;99.90
30572;DHT22;17348;50.948;10.696;2023-01-28T17:59:28;-0.30;99.90
30572;DHT22;17348;50.948;10.696;2023-01-28T18:02:31;-0.30;99.90
30572;DHT22;17348;50.948;10.696;2023-01-28T18:05:34;-0.30;99.90
30572;DHT22;17348;50.948;10.696;2023-01-28T18:08:36;-0.40;99.90
30572;DHT22;17348;50.948;10.696;2023-01-28T18:11:41;-0.40;99.90
30572;DHT22;17348;50.948;10.696;2023-01-28T18:14:44;-0.40;99.90
30572;DHT22;17348;50.948;10.696;2023-01-28T18:17:50;-0.30;99.90
30572;DHT22;17348;50.948;10.696;2023-01-28T18:20:56;-0.30;99.90
30572;DHT22;17348;50.948;10.696;2023-01-28T18:23:58;-0.30;99.90
30572;DHT22;17348;50.948;10.696;2023-01-28T18:27:01;-0.30;99.90
30572;DHT22;17348;50.948;10.696;2023-01-28T18:30:04;-0.20;99.90
30572;DHT22;17348;50.948;10.696;2023-01-28T18:33:08;-0.20;99.90
30572;DHT22;17348;50.948;10.696;2023-01-28T18:36:11;-0.20;99.90
30572;DHT22;17348;50.948;10.696;2023-01-28T18:39:13;-0.20;99.90
30572;DHT22;17348;50.948;10.696;2023-01-28T18:42:16;-0.20;99.90
30572;DHT22;17348;50.948;10.696;2023-01-28T18:45:18;-0.30;99.90
30572;DHT22;17348;50.948;10.696;2023-01-28T18:48:22;-0.30;99.90
30572;DHT22;17348;50.948;10.696;2023-01-28T18:51:27;-0.30;99.90
30572;DHT22;17348;50.948;10.696;2023-01-28T18:54:30;-0.30;99.90
30572;DHT22;17348;50.948;10.696;2023-01-28T18:57:32;-0.20;99.90
30572;DHT22;17348;50.948;10.696;2023-01-28T19:00:35;-0.20;99.90
30572;DHT22;17348;50.948;10.696;2023-01-28T19:03:39;-0.20;99.90
30572;DHT22;17348;50.948;10.696;2023-01-28T19:06:42;-0.20;99.90
30572;DHT22;17348;50.948;10.696;2023-01-28T19:09:44;-0.20;99.90
30572;DHT22;17348;50.948;10.696;2023-01-28T19:12:47;-0.20;99.90
30572;DHT22;17348;50.948;10.696;2023-01-28T19:15:49;-0.20;99.90
30572;DHT22;17348;50.948;10.696;2023-01-28T19:18:54;-0.10;99.90
30572;DHT22;17348;50.948;10.696;2023-01-28T19:21:56;-0.10;99.90
30572;DHT22;17348;50.948;10.696;2023-01-28T19:24:59;-0.10;99.90
30572;DHT22;17348;50.948;10.696;2023-01-28T19:28:01;-0.10;99.90
30572;DHT22;17348;50.948;10.696;2023-01-28T19:31:03;-0.10;99.90
30572;DHT22;17348;50.948;10.696;2023-01-28T19:34:09;-0.10;99.90
30572;DHT22;17348;50.948;10.696;2023-01-28T19:37:11;-0.10;99.90
30572;DHT22;17348;50.948;10.696;2023-01-28T19:40:14;-0.10;99.90
30572;DHT22;17348;50.948;10.696;2023-01-28T19:43:16;-0.10;99.90
30572;DHT22;17348;50.948;10.696;2023-01-28T19:46:20;-0.10;99.90